createdAt,value
2023-02-02T00:00:51.309Z,1.70
2023-02-02T00:03:32.864Z,1.48
2023-02-02T00:06:00.455Z,1.70
2023-02-02T00:08:28.115Z,1.70
2023-02-02T00:10:55.515Z,1.55
2023-02-02T00:13:23.186Z,1.77
2023-02-02T00:15:52.495Z,1.98
2023-02-02T00:18:20.249Z,1.88
2023-02-02T00:20:47.586Z,1.92
2023-02-02T00:26:38.358Z,1.88
2023-02-02T00:29:06.805Z,2.25
2023-02-02T00:31:34.598Z,1.73
2023-02-02T00:34:02.287Z,1.27
2023-02-02T00:36:29.762Z,1.50
2023-02-02T00:38:57.460Z,1.67
2023-02-02T00:41:24.910Z,1.42
2023-02-02T00:43:52.625Z,1.42
2023-02-02T00:46:20.029Z,1.58
2023-02-02T00:48:47.701Z,1.95
2023-02-02T00:51:15.124Z,1.67
2023-02-02T00:53:42.768Z,1.40
2023-02-02T00:59:42.820Z,1.55
2023-02-02T01:02:12.997Z,1.60
2023-02-02T01:04:40.597Z,2.25
2023-02-02T01:07:08.241Z,1.58
2023-02-02T01:09:35.665Z,1.60
2023-02-02T01:12:03.384Z,1.98
2023-02-02T01:14:30.803Z,1.20
2023-02-02T01:16:58.516Z,1.92
2023-02-02T01:19:26.068Z,1.30
2023-02-02T01:21:53.839Z,1.45
2023-02-02T01:24:21.206Z,1.20
2023-02-02T01:26:48.949Z,1.00
2023-02-02T01:29:16.399Z,2.17
2023-02-02T01:31:44.341Z,2.10
2023-02-02T01:34:11.725Z,1.58
2023-02-02T01:36:58.017Z,1.33
2023-02-02T01:39:25.533Z,1.55
2023-02-02T01:41:53.251Z,1.75
2023-02-02T01:44:39.354Z,1.60
2023-02-02T01:47:07.142Z,1.33
2023-02-02T01:49:34.558Z,1.40
2023-02-02T01:52:02.223Z,1.58
2023-02-02T01:54:37.675Z,1.73
2023-02-02T01:57:09.919Z,1.70
2023-02-02T01:59:37.431Z,1.58
2023-02-02T02:02:05.250Z,1.05
2023-02-02T02:04:33.091Z,1.60
2023-02-02T02:07:01.730Z,1.35
2023-02-02T02:09:29.107Z,1.33
2023-02-02T02:11:56.970Z,1.10
2023-02-02T02:17:53.201Z,1.42
2023-02-02T02:23:06.618Z,1.05
2023-02-02T02:29:02.199Z,1.48
2023-02-02T02:31:41.952Z,1.50
2023-02-02T02:34:09.391Z,1.10
2023-02-02T02:36:50.098Z,1.05
2023-02-02T02:39:25.203Z,1.48
2023-02-02T02:41:55.842Z,1.17
2023-02-02T02:44:23.939Z,1.63
2023-02-02T02:46:51.884Z,1.20
2023-02-02T02:52:41.382Z,1.38
2023-02-02T02:55:10.079Z,1.30
2023-02-02T02:57:40.176Z,1.10
2023-02-02T03:00:07.982Z,1.38
2023-02-02T03:02:47.433Z,1.25
2023-02-02T03:05:37.807Z,0.85
2023-02-02T03:08:05.190Z,1.05
2023-02-02T03:10:33.292Z,1.63
2023-02-02T03:13:00.725Z,0.88
2023-02-02T03:15:28.412Z,1.45
2023-02-02T03:17:55.822Z,1.30
2023-02-02T03:20:23.553Z,1.48
2023-02-02T03:22:50.976Z,1.73
2023-02-02T03:25:18.677Z,1.40
2023-02-02T03:31:08.436Z,1.23
2023-02-02T03:33:36.735Z,1.10
2023-02-02T03:36:04.385Z,2.03
2023-02-02T03:38:32.154Z,1.27
2023-02-02T03:40:59.518Z,1.20
2023-02-02T03:43:27.175Z,1.55
2023-02-02T03:45:58.524Z,1.33
2023-02-02T03:48:26.805Z,0.95
2023-02-02T03:50:54.302Z,1.27
2023-02-02T03:53:22.599Z,1.20
2023-02-02T03:55:49.933Z,1.00
2023-02-02T03:58:17.686Z,2.10
2023-02-02T04:04:06.994Z,1.23
2023-02-02T04:06:34.860Z,1.67
2023-02-02T04:09:02.221Z,1.08
2023-02-02T04:11:29.845Z,1.73
2023-02-02T04:13:57.328Z,1.30
2023-02-02T04:16:25.008Z,1.33
2023-02-02T04:18:52.389Z,1.33
2023-02-02T04:21:20.060Z,1.13
2023-02-02T04:23:47.458Z,1.42
2023-02-02T04:26:15.230Z,1.15
2023-02-02T04:28:42.620Z,1.58
2023-02-02T04:31:10.311Z,0.90
2023-02-02T04:33:37.815Z,1.05
2023-02-02T04:36:05.626Z,1.15
2023-02-02T04:38:33.018Z,0.93
2023-02-02T04:41:05.564Z,1.10
2023-02-02T04:46:00.411Z,1.13
2023-02-02T04:48:27.740Z,1.40
2023-02-02T04:51:02.095Z,1.10
2023-02-02T04:53:29.535Z,0.70
2023-02-02T04:55:57.200Z,0.73
2023-02-02T04:58:24.574Z,1.92
2023-02-02T05:00:52.270Z,0.90
2023-02-02T05:03:19.635Z,1.20
2023-02-02T05:05:47.522Z,1.00
2023-02-02T05:08:14.965Z,1.10
2023-02-02T05:10:42.639Z,1.20
2023-02-02T05:13:09.973Z,1.10
2023-02-02T05:15:37.616Z,1.25
2023-02-02T05:18:05.032Z,0.70
2023-02-02T05:20:32.701Z,0.98
2023-02-02T05:23:00.137Z,1.10
2023-02-02T05:25:27.930Z,1.10
2023-02-02T05:27:55.463Z,0.93
2023-02-02T05:30:23.214Z,0.90
2023-02-02T05:32:50.668Z,1.55
2023-02-02T05:35:18.347Z,1.30
2023-02-02T05:37:45.985Z,1.20
2023-02-02T05:40:13.776Z,1.00
2023-02-02T05:42:41.204Z,1.30
2023-02-02T05:45:09.291Z,1.00
2023-02-02T05:47:36.877Z,1.52
2023-02-02T05:50:04.706Z,1.00
2023-02-02T05:52:33.081Z,1.40
2023-02-02T05:55:00.786Z,1.00
2023-02-02T05:57:28.206Z,1.02
2023-02-02T05:59:55.872Z,1.45
2023-02-02T06:05:45.209Z,1.30
2023-02-02T06:08:12.927Z,1.50
2023-02-02T06:14:12.922Z,1.27
2023-02-02T06:16:40.681Z,1.45
2023-02-02T06:19:08.146Z,1.00
2023-02-02T06:21:35.863Z,1.20
2023-02-02T06:24:03.416Z,1.40
2023-02-02T06:26:31.129Z,1.45
2023-02-02T06:28:58.549Z,1.35
2023-02-02T06:31:26.495Z,1.45
2023-02-02T06:33:55.451Z,1.73
2023-02-02T06:36:25.346Z,1.48
2023-02-02T06:38:53.837Z,1.83
2023-02-02T06:41:21.685Z,2.28
2023-02-02T06:43:49.539Z,2.47
2023-02-02T06:46:17.593Z,1.50
2023-02-02T06:48:45.056Z,2.13
2023-02-02T06:51:12.747Z,1.58
2023-02-02T06:53:40.194Z,1.60
2023-02-02T06:56:09.790Z,1.35
2023-02-02T06:58:37.167Z,1.88
2023-02-02T07:01:06.528Z,1.45
2023-02-02T07:03:34.397Z,1.90
2023-02-02T07:06:15.121Z,1.67
2023-02-02T07:12:04.575Z,1.70
2023-02-02T07:14:32.294Z,1.40
2023-02-02T07:16:59.686Z,1.50
2023-02-02T07:19:27.574Z,1.55
2023-02-02T07:21:55.012Z,1.23
2023-02-02T07:24:22.719Z,0.95
2023-02-02T07:26:50.288Z,1.08
2023-02-02T07:29:18.059Z,1.20
2023-02-02T07:31:45.656Z,1.13
2023-02-02T07:34:13.505Z,1.40
2023-02-02T07:36:40.887Z,1.92
2023-02-02T07:39:08.664Z,1.27
2023-02-02T07:45:35.853Z,0.80
2023-02-02T07:48:03.738Z,1.05
2023-02-02T07:50:31.704Z,1.40
2023-02-02T07:56:22.599Z,1.17
2023-02-02T07:58:52.008Z,1.35
2023-02-02T08:01:19.459Z,1.23
2023-02-02T08:03:47.072Z,1.25
2023-02-02T08:06:15.894Z,0.93
2023-02-02T08:08:43.565Z,1.10
2023-02-02T08:11:11.861Z,1.50
2023-02-02T08:13:40.452Z,1.13
2023-02-02T08:16:08.213Z,0.90
2023-02-02T08:18:37.641Z,1.25
2023-02-02T08:21:05.778Z,1.10
2023-02-02T08:23:33.632Z,1.27
2023-02-02T08:26:13.113Z,0.80
2023-02-02T08:32:22.270Z,1.20
2023-02-02T08:34:49.898Z,1.10
2023-02-02T08:44:43.095Z,1.15
2023-02-02T08:47:18.743Z,0.93
2023-02-02T08:49:46.133Z,1.02
2023-02-02T08:52:13.892Z,1.00
2023-02-02T08:54:41.236Z,0.80
2023-02-02T08:57:08.925Z,0.90
2023-02-02T08:59:36.411Z,0.80
2023-02-02T09:02:04.117Z,1.17
2023-02-02T09:04:31.538Z,0.88
2023-02-02T09:06:59.210Z,0.63
2023-02-02T09:09:26.565Z,0.75
2023-02-02T09:11:54.239Z,0.60
2023-02-02T09:14:21.658Z,0.70
2023-02-02T09:16:49.506Z,0.80
2023-02-02T09:19:16.872Z,0.80
2023-02-02T09:21:44.688Z,1.13
2023-02-02T09:24:12.815Z,0.75
2023-02-02T09:26:40.841Z,1.08
2023-02-02T09:29:11.084Z,1.05
2023-02-02T09:31:39.106Z,0.77
2023-02-02T09:34:08.154Z,0.75
2023-02-02T09:36:36.766Z,0.80
2023-02-02T09:39:04.754Z,0.68
2023-02-02T09:41:32.501Z,0.90
2023-02-02T09:44:14.908Z,1.25
2023-02-02T09:47:01.177Z,0.60
2023-02-02T09:49:33.969Z,0.80
2023-02-02T09:52:04.358Z,0.85
2023-02-02T09:54:34.468Z,0.73
2023-02-02T09:57:08.912Z,1.35
2023-02-02T09:59:40.165Z,1.08
2023-02-02T10:02:15.430Z,0.95
2023-02-02T10:04:45.294Z,0.88
2023-02-02T10:07:15.445Z,0.88
2023-02-02T10:09:57.928Z,1.25
2023-02-02T10:12:34.862Z,1.15
2023-02-02T10:15:08.572Z,1.10
2023-02-02T10:17:42.102Z,1.13
2023-02-02T10:20:15.455Z,1.05
2023-02-02T10:22:44.199Z,1.02
2023-02-02T10:25:15.947Z,1.23
2023-02-02T10:27:50.320Z,1.10
2023-02-02T10:30:23.035Z,1.35
2023-02-02T10:32:53.786Z,0.90
2023-02-02T10:35:42.854Z,1.20
2023-02-02T10:38:20.137Z,1.25
2023-02-02T10:40:47.450Z,0.93
2023-02-02T10:43:33.220Z,1.30
2023-02-02T10:46:02.041Z,1.30
2023-02-02T10:48:31.807Z,1.55
2023-02-02T10:51:00.385Z,1.45
2023-02-02T10:53:33.145Z,1.38
2023-02-02T10:56:03.303Z,1.00
2023-02-02T10:58:40.361Z,1.20
2023-02-02T11:01:09.099Z,1.13
2023-02-02T11:03:38.048Z,0.80
2023-02-02T11:06:06.964Z,0.85
2023-02-02T11:08:44.752Z,1.45
2023-02-02T11:11:32.497Z,0.80
2023-02-02T11:14:09.238Z,0.60
2023-02-02T11:16:43.311Z,0.70
2023-02-02T11:19:17.791Z,1.00
2023-02-02T11:21:50.053Z,0.50
2023-02-02T11:24:17.722Z,0.80
2023-02-02T11:26:47.000Z,0.63
2023-02-02T11:29:23.725Z,0.68
2023-02-02T11:31:51.114Z,0.75
2023-02-02T11:34:21.456Z,0.85
2023-02-02T11:37:04.139Z,1.10
2023-02-02T11:39:31.858Z,1.20
2023-02-02T11:42:04.232Z,0.93
2023-02-02T11:44:32.378Z,1.00
2023-02-02T11:47:00.565Z,0.90
2023-02-02T11:49:28.473Z,1.23
2023-02-02T11:52:03.051Z,1.17
2023-02-02T11:54:32.042Z,1.10
2023-02-02T11:57:04.880Z,1.10
2023-02-02T11:59:39.827Z,0.80
2023-02-02T12:02:13.135Z,1.02
2023-02-02T12:04:41.259Z,0.98
2023-02-02T12:07:27.219Z,0.60
2023-02-02T12:09:59.514Z,1.05
2023-02-02T12:12:35.724Z,0.80
2023-02-02T12:15:03.345Z,0.80
2023-02-02T12:17:41.815Z,0.93
2023-02-02T12:20:15.465Z,1.30
2023-02-02T12:22:48.788Z,0.90
2023-02-02T12:25:45.914Z,0.93
2023-02-02T12:28:31.737Z,1.00
2023-02-02T12:31:17.973Z,0.98
2023-02-02T12:33:51.157Z,1.10
2023-02-02T12:36:23.267Z,0.70
2023-02-02T12:38:50.627Z,1.08
2023-02-02T12:41:29.460Z,1.00
2023-02-02T12:44:05.565Z,1.10
2023-02-02T12:46:42.262Z,1.00
2023-02-02T12:49:34.944Z,1.30
2023-02-02T12:52:11.617Z,0.80
2023-02-02T12:54:57.694Z,1.33
2023-02-02T12:57:47.555Z,1.05
2023-02-02T13:00:24.361Z,1.25
2023-02-02T13:02:52.202Z,0.80
2023-02-02T13:05:29.486Z,1.10
2023-02-02T13:08:10.442Z,1.45
2023-02-02T13:10:46.459Z,0.88
2023-02-02T13:13:18.629Z,1.08
2023-02-02T13:15:47.334Z,0.90
2023-02-02T13:18:19.486Z,0.90
2023-02-02T13:20:49.296Z,1.20
2023-02-02T13:23:20.231Z,1.00
2023-02-02T13:25:49.320Z,1.30
2023-02-02T13:28:25.654Z,0.70
2023-02-02T13:30:53.494Z,1.02
2023-02-02T13:33:26.247Z,1.25
2023-02-02T13:38:25.052Z,1.20
2023-02-02T13:40:56.050Z,1.02
2023-02-02T13:43:26.547Z,1.48
2023-02-02T13:45:59.775Z,1.50
2023-02-02T13:48:27.449Z,1.27
2023-02-02T13:51:15.102Z,1.50
2023-02-02T13:54:02.271Z,1.90
2023-02-02T13:56:29.762Z,1.10
2023-02-02T13:59:09.404Z,1.20
2023-02-02T14:01:36.979Z,0.80
2023-02-02T14:04:04.778Z,1.02
2023-02-02T14:09:48.361Z,0.80
2023-02-02T14:12:26.567Z,1.10
2023-02-02T14:14:54.396Z,1.33
2023-02-02T14:17:21.762Z,1.13
2023-02-02T14:19:51.089Z,1.10
2023-02-02T14:26:04.925Z,1.10
2023-02-02T14:28:46.669Z,1.10
2023-02-02T14:31:16.943Z,1.45
2023-02-02T14:33:44.832Z,1.70
2023-02-02T14:36:13.128Z,1.80
2023-02-02T14:38:46.694Z,2.08
2023-02-02T14:41:17.075Z,1.98
2023-02-02T14:43:48.448Z,2.28
2023-02-02T14:46:15.906Z,2.28
2023-02-02T14:48:48.275Z,2.60
2023-02-02T14:51:22.084Z,1.88
2023-02-02T14:53:51.131Z,1.63
2023-02-02T14:56:18.603Z,2.35
2023-02-02T14:58:52.264Z,2.00
2023-02-02T15:01:19.629Z,1.77
2023-02-02T15:03:47.373Z,1.42
2023-02-02T15:06:32.231Z,1.45
2023-02-02T15:09:18.695Z,1.40
2023-02-02T15:12:01.909Z,1.35
2023-02-02T15:14:36.272Z,1.25
2023-02-02T15:17:12.040Z,1.42
2023-02-02T15:19:41.825Z,1.60
2023-02-02T15:22:24.402Z,1.67
2023-02-02T15:24:53.015Z,2.47
2023-02-02T15:27:22.765Z,1.65
2023-02-02T15:29:54.876Z,1.52
2023-02-02T15:32:24.780Z,1.75
2023-02-02T15:34:58.088Z,1.85
2023-02-02T15:37:28.750Z,1.73
2023-02-02T15:39:58.423Z,1.45
2023-02-02T15:42:30.891Z,1.70
2023-02-02T15:44:58.683Z,2.08
2023-02-02T15:47:32.601Z,1.25
2023-02-02T15:50:17.907Z,1.17
2023-02-02T15:52:47.068Z,1.70
2023-02-02T15:55:22.333Z,1.85
2023-02-02T15:57:51.252Z,1.70
2023-02-02T16:00:23.141Z,1.98
2023-02-02T16:02:59.348Z,1.50
2023-02-02T16:05:29.939Z,1.50
2023-02-02T16:08:07.815Z,1.60
2023-02-02T16:10:35.798Z,1.20
2023-02-02T16:13:03.469Z,1.38
2023-02-02T16:15:31.133Z,1.52
2023-02-02T16:17:59.307Z,1.45
2023-02-02T16:20:28.484Z,1.10
2023-02-02T16:22:57.078Z,1.73
2023-02-02T16:25:25.272Z,1.55
2023-02-02T16:27:52.959Z,1.58
2023-02-02T16:30:26.422Z,1.33
2023-02-02T16:32:54.086Z,1.52
2023-02-02T16:35:33.756Z,1.58
2023-02-02T16:38:19.748Z,1.60
2023-02-02T16:44:43.625Z,1.75
2023-02-02T16:50:33.437Z,1.20
2023-02-02T16:53:02.475Z,1.77
2023-02-02T16:55:43.638Z,1.70
2023-02-02T16:58:19.726Z,1.40
2023-02-02T17:01:15.974Z,1.52
2023-02-02T17:03:52.614Z,1.50
2023-02-02T17:06:38.702Z,1.80
2023-02-02T17:09:25.702Z,1.77
2023-02-02T17:11:57.354Z,1.33
2023-02-02T17:14:35.484Z,0.98
2023-02-02T17:17:04.983Z,1.02
2023-02-02T17:19:32.846Z,0.80
2023-02-02T17:22:02.130Z,1.00
2023-02-02T17:27:52.029Z,1.13
2023-02-02T17:30:19.927Z,1.02
2023-02-02T17:32:47.340Z,1.05
2023-02-02T17:35:15.792Z,0.93
2023-02-02T17:37:43.350Z,0.95
2023-02-02T17:44:06.461Z,0.93
2023-02-02T17:46:39.974Z,0.90
2023-02-02T17:49:07.702Z,0.82
2023-02-02T17:51:35.609Z,0.95
2023-02-02T17:54:03.174Z,1.48
2023-02-02T17:56:30.811Z,1.52
2023-02-02T17:58:58.348Z,1.90
2023-02-02T18:01:26.174Z,1.60
2023-02-02T18:03:54.044Z,1.65
2023-02-02T18:09:54.951Z,1.25
2023-02-02T18:12:22.965Z,1.60
2023-02-02T18:14:50.379Z,1.50
2023-02-02T18:17:18.151Z,1.67
2023-02-02T18:19:45.712Z,1.63
2023-02-02T18:22:13.385Z,1.58
2023-02-02T18:24:40.972Z,1.73
2023-02-02T18:27:08.604Z,1.70
2023-02-02T18:29:36.044Z,1.73
2023-02-02T18:32:03.976Z,1.60
2023-02-02T18:34:32.101Z,1.80
2023-02-02T18:40:21.942Z,1.45
2023-02-02T18:42:49.852Z,1.85
2023-02-02T18:45:17.317Z,1.35
2023-02-02T18:47:45.111Z,1.42
2023-02-02T18:50:12.761Z,1.67
2023-02-02T18:55:44.129Z,1.40
2023-02-02T19:01:43.792Z,1.17
2023-02-02T19:04:11.563Z,1.10
2023-02-02T19:06:39.095Z,1.25
2023-02-02T19:09:07.110Z,1.10
2023-02-02T19:14:48.597Z,0.95
2023-02-02T19:17:22.838Z,1.15
2023-02-02T19:19:50.709Z,1.13
2023-02-02T19:22:22.916Z,1.30
2023-02-02T19:24:50.900Z,1.17
2023-02-02T19:27:19.805Z,1.55
2023-02-02T19:29:50.039Z,1.20
2023-02-02T19:32:18.527Z,1.20
2023-02-02T19:34:46.669Z,1.30
2023-02-02T19:37:22.321Z,1.50
2023-02-02T19:39:50.400Z,0.75
2023-02-02T19:42:17.841Z,0.93
2023-02-02T19:44:45.625Z,0.73
2023-02-02T19:47:28.229Z,0.90
2023-02-02T19:49:56.390Z,0.70
2023-02-02T19:52:24.954Z,0.80
2023-02-02T19:54:52.878Z,1.10
2023-02-02T19:57:38.082Z,1.27
2023-02-02T20:00:18.381Z,1.23
2023-02-02T20:02:54.269Z,1.23
2023-02-02T20:05:23.276Z,1.50
2023-02-02T20:08:13.441Z,1.40
2023-02-02T20:10:42.523Z,1.45
2023-02-02T20:13:18.502Z,1.10
2023-02-02T20:15:47.022Z,1.38
2023-02-02T20:18:26.497Z,1.83
2023-02-02T20:20:55.311Z,1.30
2023-02-02T20:23:35.742Z,1.73
2023-02-02T20:26:07.494Z,1.60
2023-02-02T20:28:39.213Z,1.53
2023-02-02T20:31:08.121Z,1.80
2023-02-02T20:33:36.127Z,1.55
2023-02-02T20:36:23.885Z,1.95
2023-02-02T20:38:51.240Z,1.55
2023-02-02T20:41:19.258Z,2.20
2023-02-02T20:43:46.789Z,2.25
2023-02-02T20:46:14.587Z,2.20
2023-02-02T20:48:42.078Z,1.98
2023-02-02T20:51:09.845Z,2.63
2023-02-02T20:53:37.551Z,2.50
2023-02-02T20:56:05.460Z,2.42
2023-02-02T20:58:32.863Z,2.78
2023-02-02T21:01:00.756Z,2.33
2023-02-02T21:03:28.398Z,2.53
2023-02-02T21:05:56.157Z,2.20
2023-02-02T21:08:25.111Z,2.30
2023-02-02T21:10:52.894Z,2.88
2023-02-02T21:13:20.351Z,2.22
2023-02-02T21:15:48.339Z,3.60
2023-02-02T21:18:15.979Z,2.90
2023-02-02T21:20:43.627Z,2.38
2023-02-02T21:23:11.002Z,2.50
2023-02-02T21:25:38.711Z,2.80
2023-02-02T21:28:06.366Z,2.13
2023-02-02T21:30:34.930Z,2.47
2023-02-02T21:33:04.519Z,3.25
2023-02-02T21:35:32.253Z,2.45
2023-02-02T21:38:02.079Z,2.33
2023-02-02T21:40:30.903Z,2.67
2023-02-02T21:46:54.667Z,2.67
2023-02-02T21:49:25.113Z,2.58
2023-02-02T21:51:55.654Z,2.65
2023-02-02T21:54:23.475Z,2.47
2023-02-02T21:56:51.752Z,2.17
2023-02-02T21:59:20.783Z,2.55
2023-02-02T22:01:49.016Z,2.65
2023-02-02T22:07:39.698Z,2.92
2023-02-02T22:10:18.243Z,3.10
2023-02-02T22:12:45.619Z,3.17
2023-02-02T22:15:17.584Z,2.90
2023-02-02T22:17:44.943Z,2.90
2023-02-02T22:20:15.468Z,2.88
2023-02-02T22:22:47.063Z,3.42
2023-02-02T22:25:17.487Z,2.85
2023-02-02T22:27:52.811Z,3.30
2023-02-02T22:30:22.788Z,3.08
2023-02-02T22:32:50.209Z,4.43
2023-02-02T22:35:19.933Z,2.95
2023-02-02T22:37:48.901Z,3.17
2023-02-02T22:40:17.020Z,3.88
2023-02-02T22:42:44.553Z,3.80
2023-02-02T22:45:12.332Z,3.35
2023-02-02T22:47:39.698Z,3.67
2023-02-02T22:50:07.767Z,4.07
2023-02-02T22:52:35.163Z,3.20
2023-02-02T22:55:02.879Z,3.67
2023-02-02T22:57:30.511Z,4.60
2023-02-02T22:59:58.088Z,4.90
2023-02-02T23:02:25.521Z,5.45
2023-02-02T23:04:53.312Z,5.28
2023-02-02T23:07:23.415Z,5.05
2023-02-02T23:09:51.142Z,4.53
2023-02-02T23:12:18.634Z,4.63
2023-02-02T23:14:46.506Z,5.63
2023-02-02T23:17:13.848Z,5.18
2023-02-02T23:19:41.612Z,5.50
2023-02-02T23:22:09.045Z,5.53
2023-02-02T23:27:58.887Z,4.25
2023-02-02T23:30:26.754Z,4.40
2023-02-02T23:32:54.432Z,5.20
2023-02-02T23:35:22.168Z,5.60
2023-02-02T23:37:49.517Z,5.82
2023-02-02T23:40:17.279Z,6.78
2023-02-02T23:42:44.672Z,6.65
2023-02-02T23:45:13.192Z,7.45
2023-02-02T23:47:43.543Z,6.63
2023-02-02T23:50:11.459Z,6.13
2023-02-02T23:52:38.884Z,5.00
2023-02-02T23:55:07.350Z,5.40
2023-02-02T23:57:34.821Z,4.60
